Time;durP1;ratioP1;P1;durP2;ratioP2;P2;SDS_P1;SDS_P2;PMS_P1;PMS_P2;Temp;Humidity;BMP_temperature;BMP_pressure;BME280_temperature;BME280_humidity;BME280_pressure;Samples;Min_cycle;Max_cycle;Signal;HPM_P1;HPM_P2
2023/08/20 00:02:23;;;;;;;;;3.00;3.00;;;;;24.90;66.63;101609.44;5086171;27;46061;-62
2023/08/20 00:04:49;;;;;;;;;3.00;2.00;;;;;24.90;66.14;101607.56;5087711;27;45609;-62
2023/08/20 00:07:18;;;;;;;;;3.00;3.00;;;;;24.87;65.80;101596.88;5082191;27;45424;-62
2023/08/20 00:09:43;;;;;;;;;2.00;1.25;;;;;24.84;66.92;101601.72;5094898;27;46284;-62
2023/08/20 00:12:08;;;;;;;;;2.50;2.50;;;;;24.83;66.62;101605.47;5087165;27;46038;-62
2023/08/20 00:14:58;;;;;;;;;3.00;3.00;;;;;24.77;66.15;101604.97;5087114;27;46270;-62
2023/08/20 00:17:26;;;;;;;;;4.00;2.50;;;;;24.77;66.23;101607.69;5098240;27;45464;-62
2023/08/20 00:19:53;;;;;;;;;3.00;3.00;;;;;24.75;65.83;101603.34;5101334;27;45428;-62
2023/08/20 00:22:21;;;;;;;;;1.50;1.25;;;;;24.67;66.09;101601.19;5088495;27;45435;-63
2023/08/20 00:24:46;;;;;;;;;3.50;2.00;;;;;24.69;65.36;101610.16;5062809;28;46260;-62
2023/08/20 00:27:12;;;;;;;;;3.25;1.50;;;;;24.61;65.68;101604.44;5089554;27;45359;-62
2023/08/20 00:29:37;;;;;;;;;3.50;2.00;;;;;24.53;65.43;101604.97;5101022;27;45382;-62
2023/08/20 00:32:03;;;;;;;;;3.50;2.25;;;;;24.52;65.43;101614.16;5098428;27;45368;-62
2023/08/20 00:34:28;;;;;;;;;5.00;2.75;;;;;24.45;66.10;101607.44;5083381;27;45434;-62
2023/08/20 00:36:53;;;;;;;;;3.00;1.75;;;;;24.45;65.40;101614.75;5080697;27;50446;-62
2023/08/20 00:39:19;;;;;;;;;3.25;2.00;;;;;24.45;65.60;101612.91;5080649;27;45387;-62
2023/08/20 00:41:44;;;;;;;;;2.75;2.50;;;;;24.40;65.70;101609.66;5090772;27;63149;-62
2023/08/20 00:44:09;;;;;;;;;2.00;2.00;;;;;24.39;65.37;101608.78;5082930;27;45449;-62
2023/08/20 00:46:35;;;;;;;;;2.00;2.00;;;;;24.44;65.31;101623.94;5079340;27;45395;-63
2023/08/20 00:49:00;;;;;;;;;4.75;2.00;;;;;24.38;65.65;101626.13;5078672;27;45365;-62
2023/08/20 00:51:26;;;;;;;;;1.00;1.00;;;;;24.34;65.69;101624.66;5092545;27;45483;-62
2023/08/20 00:53:51;;;;;;;;;2.00;2.00;;;;;24.31;65.74;101624.88;5087339;27;45317;-62
2023/08/20 00:56:17;;;;;;;;;2.75;2.00;;;;;24.31;65.72;101632.22;5089914;27;45374;-62
2023/08/20 00:58:42;;;;;;;;;1.00;1.00;;;;;24.26;64.93;101624.38;5080276;27;45417;-62
2023/08/20 01:01:08;;;;;;;;;3.25;2.00;;;;;24.24;65.21;101634.53;5079178;27;48084;-62
2023/08/20 01:03:33;;;;;;;;;3.50;2.00;;;;;24.20;65.76;101622.97;5083686;27;52534;-62
2023/08/20 01:06:14;;;;;;;;;3.00;3.00;;;;;24.17;65.99;101623.22;5080269;27;51546;-62
2023/08/20 01:08:40;;;;;;;;;1.75;1.75;;;;;24.10;65.66;101623.78;5079012;27;45472;-62
2023/08/20 01:11:26;;;;;;;;;2.00;2.00;;;;;24.08;65.36;101626.63;5087170;27;46238;-62
2023/08/20 01:13:54;;;;;;;;;2.50;2.50;;;;;24.06;65.44;101620.44;5098297;27;45537;-62
2023/08/20 01:16:20;;;;;;;;;3.25;2.00;;;;;24.05;65.39;101627.72;5099910;27;45414;-62
2023/08/20 01:18:45;;;;;;;;;2.50;2.00;;;;;24.04;65.39;101630.59;5089763;27;48156;-62
2023/08/20 01:21:39;;;;;;;;;2.00;1.00;;;;;24.02;65.58;101633.44;5080076;27;45373;-62
2023/08/20 01:24:22;;;;;;;;;2.00;2.00;;;;;24.01;65.45;101631.69;5080693;27;45489;-62
2023/08/20 01:27:11;;;;;;;;;3.00;3.00;;;;;23.96;65.52;101633.88;5081312;27;45476;-62
2023/08/20 01:29:37;;;;;;;;;2.00;2.00;;;;;23.94;65.71;101634.97;5088393;27;45407;-62
2023/08/20 01:32:05;;;;;;;;;2.00;2.00;;;;;23.89;65.74;101621.72;5091821;27;45429;-62
2023/08/20 01:34:31;;;;;;;;;3.75;3.50;;;;;23.91;65.75;101627.91;5081212;27;45415;-62
2023/08/20 01:36:56;;;;;;;;;4.00;3.00;;;;;23.87;66.00;101634.56;5082073;27;45530;-62
2023/08/20 01:39:21;;;;;;;;;4.25;4.25;;;;;23.83;66.10;101633.06;5079877;27;58538;-62
2023/08/20 01:41:47;;;;;;;;;4.25;2.75;;;;;23.84;66.43;101640.25;5081092;27;57062;-62
2023/08/20 01:44:12;;;;;;;;;6.25;5.75;;;;;23.82;66.19;101645.81;5092434;27;45423;-62
2023/08/20 01:46:37;;;;;;;;;7.75;6.25;;;;;23.72;65.87;101632.94;5100206;27;45323;-62
2023/08/20 01:49:03;;;;;;;;;5.25;4.25;;;;;23.70;66.11;101634.91;5080727;27;45801;-62
2023/08/20 01:51:28;;;;;;;;;4.00;4.00;;;;;23.68;66.06;101633.16;5082632;27;45280;-62
2023/08/20 01:53:54;;;;;;;;;3.75;3.75;;;;;23.68;66.35;101629.56;5092545;27;45337;-62
2023/08/20 01:56:19;;;;;;;;;2.25;2.25;;;;;23.67;66.08;101634.16;5079357;27;48162;-62
2023/08/20 01:58:44;;;;;;;;;3.00;3.00;;;;;23.65;66.57;101630.66;5079101;27;51739;-62
2023/08/20 02:01:10;;;;;;;;;3.00;3.00;;;;;23.67;66.10;101633.28;5079539;27;45994;-62
2023/08/20 02:03:37;;;;;;;;;2.25;2.25;;;;;23.60;66.49;101624.69;5093247;27;46225;-62
2023/08/20 02:06:03;;;;;;;;;3.50;3.00;;;;;23.58;66.70;101636.69;5087168;27;45384;-62
2023/08/20 02:08:28;;;;;;;;;4.25;2.25;;;;;23.53;66.56;101628.84;5079239;27;45381;-62
2023/08/20 02:11:01;;;;;;;;;4.00;2.00;;;;;23.57;66.75;101634.94;5078706;28;56499;-62
2023/08/20 02:13:26;;;;;;;;;4.00;2.25;;;;;23.56;66.77;101638.66;5087474;27;45541;-62
2023/08/20 02:16:02;;;;;;;;;2.25;2.00;;;;;23.55;67.10;101639.63;5088887;27;45463;-62
2023/08/20 02:18:28;;;;;;;;;3.00;3.00;;;;;23.53;66.93;101637.03;5086155;27;46007;-62
2023/08/20 02:20:53;;;;;;;;;2.00;1.25;;;;;23.45;66.72;101633.97;5079357;27;45676;-62
2023/08/20 02:23:19;;;;;;;;;3.25;2.00;;;;;23.44;66.67;101635.84;5087555;27;45326;-62
2023/08/20 02:25:44;;;;;;;;;1.00;1.00;;;;;23.46;66.88;101641.19;5085508;27;47050;-62
2023/08/20 02:28:09;;;;;;;;;2.75;2.00;;;;;23.46;66.87;101641.19;5096791;27;45501;-62
2023/08/20 02:30:42;;;;;;;;;1.50;1.00;;;;;23.49;67.12;101649.16;5086167;27;49579;-62
2023/08/20 02:33:08;;;;;;;;;1.75;1.50;;;;;23.48;66.95;101639.22;5086302;27;45393;-62
2023/08/20 02:35:33;;;;;;;;;1.25;1.00;;;;;23.47;66.72;101634.75;5098619;27;45439;-62
2023/08/20 02:37:59;;;;;;;;;3.00;1.75;;;;;23.45;67.20;101639.44;5086621;27;45594;-62
2023/08/20 02:40:24;;;;;;;;;1.50;1.50;;;;;23.43;66.88;101644.13;5083541;27;46366;-62
2023/08/20 02:42:49;;;;;;;;;2.00;2.00;;;;;23.41;66.95;101638.78;5093205;27;55741;-62
2023/08/20 02:45:14;;;;;;;;;5.50;2.00;;;;;23.38;66.79;101632.69;5084787;27;53840;-62
2023/08/20 02:47:40;;;;;;;;;1.25;1.00;;;;;23.36;66.89;101627.38;5078819;27;45310;-62
2023/08/20 02:50:05;;;;;;;;;1.00;1.00;;;;;23.41;66.81;101633.34;5078153;27;60237;-62
2023/08/20 02:52:31;;;;;;;;;2.75;2.00;;;;;23.42;66.99;101636.94;5093359;27;46230;-62
2023/08/20 02:54:56;;;;;;;;;3.25;1.25;;;;;23.40;66.66;101636.19;5085525;27;45511;-62
2023/08/20 02:57:21;;;;;;;;;2.75;2.00;;;;;23.40;66.85;101639.75;5077991;28;58354;-62
2023/08/20 02:59:46;;;;;;;;;3.00;2.00;;;;;23.38;66.79;101629.97;5078673;27;46138;-62
2023/08/20 03:02:12;;;;;;;;;3.75;3.75;;;;;23.31;66.83;101629.56;5082219;27;48132;-62
2023/08/20 03:04:37;;;;;;;;;1.50;1.50;;;;;23.36;66.76;101629.22;5081739;27;51891;-62
2023/08/20 03:07:02;;;;;;;;;2.00;2.00;;;;;23.35;66.70;101636.50;5092111;27;45289;-62
2023/08/20 03:09:28;;;;;;;;;2.25;2.25;;;;;23.34;67.34;101626.59;5081924;27;45316;-62
2023/08/20 03:11:53;;;;;;;;;3.75;3.75;;;;;23.29;66.98;101620.63;5097431;27;45385;-62
2023/08/20 03:14:18;;;;;;;;;2.00;2.00;;;;;23.24;66.98;101631.84;5100697;27;45482;-62
2023/08/20 03:16:44;;;;;;;;;0.50;0.50;;;;;23.20;67.22;101633.03;5095448;27;45312;-62
2023/08/20 03:19:09;;;;;;;;;2.00;2.00;;;;;23.19;67.37;101642.19;5081951;27;45370;-62
2023/08/20 03:21:34;;;;;;;;;2.00;2.00;;;;;23.16;67.41;101626.06;5081774;27;53478;-62
2023/08/20 03:24:00;;;;;;;;;5.00;3.00;;;;;23.17;67.47;101633.28;5082314;27;45651;-62
2023/08/20 03:26:25;;;;;;;;;2.75;2.75;;;;;23.13;67.78;101635.31;5085723;27;45460;-62
2023/08/20 03:28:51;;;;;;;;;4.00;3.00;;;;;23.09;67.31;101628.38;5099021;27;46667;-62
2023/08/20 03:31:16;;;;;;;;;3.00;3.00;;;;;23.13;67.47;101642.63;5083538;27;45397;-62
2023/08/20 03:33:41;;;;;;;;;4.00;1.00;;;;;23.16;67.72;101641.56;5086878;27;45313;-62
2023/08/20 03:36:06;;;;;;;;;3.00;3.00;;;;;23.17;67.50;101640.56;5083677;27;45400;-62
2023/08/20 03:38:32;;;;;;;;;2.00;2.00;;;;;23.14;67.86;101630.78;5085409;27;59276;-62
2023/08/20 03:40:57;;;;;;;;;3.25;3.25;;;;;23.12;67.65;101630.88;5085609;27;52605;-62
2023/08/20 03:43:22;;;;;;;;;2.50;2.25;;;;;23.05;67.99;101629.50;5093947;27;45473;-62
2023/08/20 03:45:53;;;;;;;;;1.50;1.50;;;;;23.00;67.61;101623.53;5083270;27;45577;-62
2023/08/20 03:48:19;;;;;;;;;4.00;2.75;;;;;23.02;67.92;101631.59;5081571;27;46164;-62
2023/08/20 03:50:44;;;;;;;;;2.00;2.00;;;;;23.02;67.70;101631.59;5081308;27;45364;-62
2023/08/20 03:53:09;;;;;;;;;2.25;2.25;;;;;22.98;68.03;101628.22;5093778;27;55092;-62
2023/08/20 03:55:35;;;;;;;;;2.50;2.50;;;;;23.02;68.23;101635.22;5081963;27;52339;-62
2023/08/20 03:58:00;;;;;;;;;3.50;3.00;;;;;23.00;67.75;101637.13;5081356;27;45441;-62
2023/08/20 04:00:25;;;;;;;;;3.00;2.00;;;;;23.03;67.92;101641.50;5080780;27;57266;-62
2023/08/20 04:02:51;;;;;;;;;2.00;2.00;;;;;23.02;68.14;101637.94;5089115;27;45446;-62
2023/08/20 04:05:16;;;;;;;;;4.25;3.00;;;;;23.03;68.18;101641.50;5081998;27;45437;-62
2023/08/20 04:07:42;;;;;;;;;3.50;2.50;;;;;22.98;68.29;101639.09;5081143;27;46280;-62
2023/08/20 04:10:08;;;;;;;;;2.25;1.25;;;;;23.01;68.34;101644.34;5080813;27;50631;-62
2023/08/20 04:12:33;;;;;;;;;3.00;3.00;;;;;22.97;68.83;101645.56;5091285;27;45351;-62
2023/08/20 04:14:59;;;;;;;;;2.00;2.00;;;;;23.02;68.64;101650.66;5087078;27;48825;-62
2023/08/20 04:17:24;;;;;;;;;2.00;2.00;;;;;23.01;68.46;101643.47;5088718;27;46134;-62
2023/08/20 04:19:50;;;;;;;;;2.50;2.00;;;;;22.96;68.60;101643.78;5081135;27;45462;-62
2023/08/20 04:22:15;;;;;;;;;1.75;1.75;;;;;22.93;68.66;101650.31;5086305;27;45410;-62
2023/08/20 04:24:40;;;;;;;;;4.75;2.00;;;;;22.94;68.95;101656.66;5083873;27;45603;-62
2023/08/20 04:27:05;;;;;;;;;2.00;2.00;;;;;22.95;68.79;101663.81;5100617;27;59666;-62
2023/08/20 04:29:31;;;;;;;;;3.00;2.00;;;;;22.96;68.90;101662.00;5099862;27;45336;-62
2023/08/20 04:31:56;;;;;;;;;3.75;3.00;;;;;22.96;68.75;101662.00;5090819;27;45336;-62
2023/08/20 04:34:21;;;;;;;;;1.50;1.50;;;;;22.93;68.86;101661.22;5080713;27;45262;-62
2023/08/20 04:36:47;;;;;;;;;2.50;2.00;;;;;22.94;69.14;101665.69;5092763;27;45522;-62
2023/08/20 04:39:12;;;;;;;;;3.00;2.25;;;;;22.92;69.00;101659.47;5096750;27;49086;-62
2023/08/20 04:41:37;;;;;;;;;2.25;2.25;;;;;22.94;69.19;101662.09;5087026;27;45475;-62
2023/08/20 04:44:03;;;;;;;;;4.25;2.50;;;;;22.90;69.19;101658.72;5086582;27;62487;-62
2023/08/20 04:46:28;;;;;;;;;1.75;1.00;;;;;22.90;68.83;101657.84;5100444;27;45352;-62
2023/08/20 04:48:53;;;;;;;;;2.50;2.00;;;;;22.90;69.26;101664.16;5085204;27;45354;-62
2023/08/20 04:51:19;;;;;;;;;3.00;2.00;;;;;22.90;68.93;101666.00;5090143;27;45358;-62
2023/08/20 04:53:44;;;;;;;;;2.00;2.00;;;;;22.89;68.87;101667.84;5080601;27;45578;-62
2023/08/20 04:56:10;;;;;;;;;2.50;2.50;;;;;22.86;69.26;101665.34;5080424;27;45368;-62
2023/08/20 04:58:35;;;;;;;;;6.50;2.50;;;;;22.85;69.25;101663.59;5079745;27;59234;-62
2023/08/20 05:01:01;;;;;;;;;3.00;3.00;;;;;22.89;69.59;101672.44;5081407;27;45384;-62
2023/08/20 05:03:26;;;;;;;;;2.00;2.00;;;;;22.86;69.67;101670.78;5091727;27;45479;-62
2023/08/20 05:05:51;;;;;;;;;4.00;3.00;;;;;22.87;69.41;101672.53;5080250;27;49994;-62
2023/08/20 05:08:17;;;;;;;;;4.00;3.00;;;;;22.83;69.34;101671.00;5093709;27;45484;-62
2023/08/20 05:10:43;;;;;;;;;3.00;3.00;;;;;22.84;69.63;101680.06;5081977;27;45484;-62
2023/08/20 05:13:08;;;;;;;;;3.50;3.50;;;;;22.81;69.28;101677.53;5095375;27;45568;-62
2023/08/20 05:15:33;;;;;;;;;3.00;2.00;;;;;22.79;70.24;101674.03;5089774;27;45460;-62
2023/08/20 05:18:00;;;;;;;;;4.25;2.50;;;;;22.78;69.76;101680.47;5084335;27;46803;-62
2023/08/20 05:20:25;;;;;;;;;2.00;2.00;;;;;22.74;69.83;101677.97;5099578;27;45421;-62
2023/08/20 05:22:50;;;;;;;;;3.50;3.00;;;;;22.74;69.82;101674.38;5082470;27;45294;-62
2023/08/20 05:25:16;;;;;;;;;4.25;2.00;;;;;22.73;69.88;101678.06;5097719;27;51003;-62
2023/08/20 05:27:41;;;;;;;;;2.00;2.00;;;;;22.69;69.96;101679.25;5083269;27;45477;-62
2023/08/20 05:30:08;;;;;;;;;3.25;3.00;;;;;22.68;70.26;101681.09;5091555;27;45307;-62
2023/08/20 05:32:33;;;;;;;;;3.75;3.25;;;;;22.67;70.68;101689.38;5092618;27;45462;-62
2023/08/20 05:34:59;;;;;;;;;4.25;3.00;;;;;22.67;70.38;101683.91;5080094;27;45282;-62
2023/08/20 05:37:24;;;;;;;;;2.25;2.00;;;;;22.64;70.70;101684.16;5081473;27;51701;-62
2023/08/20 05:39:49;;;;;;;;;2.75;1.75;;;;;22.61;70.42;101681.63;5080614;27;45454;-62
2023/08/20 05:42:14;;;;;;;;;4.75;3.00;;;;;22.58;70.51;101683.56;5086200;27;57167;-62
2023/08/20 05:44:41;;;;;;;;;4.00;3.00;;;;;22.61;70.77;101689.81;5090757;27;45420;-62
2023/08/20 05:47:07;;;;;;;;;3.00;3.00;;;;;22.62;71.03;101696.97;5082720;27;45514;-62
2023/08/20 05:49:32;;;;;;;;;3.00;2.25;;;;;22.56;71.04;101693.69;5099170;27;45347;-62
2023/08/20 05:51:58;;;;;;;;;2.75;2.75;;;;;22.58;71.26;101697.16;5083504;27;45393;-62
2023/08/20 05:54:23;;;;;;;;;2.75;2.75;;;;;22.56;71.24;101688.25;5079681;28;51609;-62
2023/08/20 05:56:48;;;;;;;;;3.00;3.00;;;;;22.61;71.42;101695.25;5079036;27;56872;-62
2023/08/20 05:59:13;;;;;;;;;4.25;3.00;;;;;22.63;71.30;101698.72;5079555;27;45318;-62
2023/08/20 06:01:39;;;;;;;;;4.00;3.00;;;;;22.60;71.46;101701.66;5079183;27;58045;-62
2023/08/20 06:04:04;;;;;;;;;3.50;3.50;;;;;22.57;71.03;101697.31;5088586;27;56617;-62
2023/08/20 06:06:30;;;;;;;;;3.00;3.00;;;;;22.53;71.38;101691.19;5093155;27;45376;-62
2023/08/20 06:08:55;;;;;;;;;3.00;3.00;;;;;22.54;71.60;101701.09;5079504;27;46043;-62
2023/08/20 06:11:21;;;;;;;;;4.25;3.00;;;;;22.56;71.55;101707.28;5079820;27;45292;-62
2023/08/20 06:13:46;;;;;;;;;3.25;3.00;;;;;22.47;71.56;101699.78;5093690;27;45339;-62
2023/08/20 06:16:11;;;;;;;;;1.25;1.25;;;;;22.52;71.63;101711.22;5097250;27;45295;-62
2023/08/20 06:18:37;;;;;;;;;4.00;3.50;;;;;22.54;71.90;101717.41;5098182;27;50025;-62
2023/08/20 06:21:02;;;;;;;;;2.00;2.00;;;;;22.52;71.45;101711.22;5083050;27;45561;-68
2023/08/20 06:23:28;;;;;;;;;2.75;2.00;;;;;22.52;72.08;101716.66;5092464;27;46716;-68
2023/08/20 06:25:53;;;;;;;;;4.75;3.50;;;;;22.54;72.43;101717.41;5085403;27;45316;-68
2023/08/20 06:28:19;;;;;;;;;3.25;2.50;;;;;22.58;72.38;101727.09;5086615;27;45353;-68
2023/08/20 06:30:45;;;;;;;;;4.25;3.75;;;;;22.60;72.55;101713.41;5085576;27;45282;-68
2023/08/20 06:33:11;;;;;;;;;3.00;3.00;;;;;22.64;71.97;101717.66;5090785;27;46128;-68
2023/08/20 06:35:36;;;;;;;;;3.00;3.00;;;;;22.66;72.73;101720.28;5089157;27;45531;-68
2023/08/20 06:38:02;;;;;;;;;3.50;2.00;;;;;22.70;72.81;101724.53;5090991;27;45463;-68
2023/08/20 06:40:27;;;;;;;;;4.00;4.00;;;;;22.72;72.64;101718.03;5087388;27;45560;-68
2023/08/20 06:42:52;;;;;;;;;4.00;3.75;;;;;22.76;73.23;101718.69;5079882;27;45417;-68
2023/08/20 06:45:17;;;;;;;;;4.75;3.50;;;;;22.70;72.89;101717.25;5082965;27;45473;-68
2023/08/20 06:47:43;;;;;;;;;4.50;2.50;;;;;22.74;73.07;101717.91;5092120;27;55707;-68
2023/08/20 06:50:08;;;;;;;;;3.00;3.00;;;;;22.80;72.89;101719.34;5091881;27;52500;-68
2023/08/20 06:52:34;;;;;;;;;4.00;3.25;;;;;22.80;72.88;101719.34;5099530;27;46136;-68
2023/08/20 06:54:59;;;;;;;;;3.25;3.25;;;;;22.84;72.97;101726.34;5086074;27;46216;-67
2023/08/20 06:57:24;;;;;;;;;2.50;2.50;;;;;22.80;73.16;101719.34;5092473;27;45435;-67
2023/08/20 06:59:50;;;;;;;;;2.00;2.00;;;;;22.83;73.14;101727.28;5086248;27;45508;-67
2023/08/20 07:02:15;;;;;;;;;3.25;3.25;;;;;22.89;73.43;101727.75;5080596;27;56276;-68
2023/08/20 07:04:40;;;;;;;;;3.25;3.25;;;;;22.91;73.19;101733.94;5098292;27;59184;-68
2023/08/20 07:07:06;;;;;;;;;3.50;3.50;;;;;22.93;73.33;101729.25;5086571;27;45716;-68
2023/08/20 07:09:31;;;;;;;;;4.75;4.75;;;;;22.95;73.27;101729.16;5092577;27;45469;-69
2023/08/20 07:11:56;;;;;;;;;4.00;3.00;;;;;22.96;73.43;101733.66;5097075;27;45293;-67
2023/08/20 07:14:22;;;;;;;;;4.25;4.25;;;;;22.99;73.72;101732.53;5085237;27;45289;-68
2023/08/20 07:16:47;;;;;;;;;3.00;3.00;;;;;23.02;73.65;101735.06;5091209;27;45491;-67
2023/08/20 07:19:12;;;;;;;;;5.75;4.25;;;;;23.01;73.52;101723.31;5090218;27;45309;-67
2023/08/20 07:21:38;;;;;;;;;3.00;3.00;;;;;23.08;73.82;101732.81;5084996;27;45297;-68
2023/08/20 07:24:03;;;;;;;;;3.00;3.00;;;;;23.11;73.90;101731.75;5097883;27;54728;-62
2023/08/20 07:26:29;;;;;;;;;4.00;4.00;;;;;23.07;73.79;101730.19;5087287;27;45454;-62
2023/08/20 07:28:57;;;;;;;;;4.00;4.00;;;;;23.16;74.12;101740.47;5089281;27;45507;-62
2023/08/20 07:31:30;;;;;;;;;3.00;3.00;;;;;23.16;74.64;101735.00;5096759;27;46233;-62
2023/08/20 07:33:56;;;;;;;;;3.75;2.25;;;;;23.21;74.84;101741.00;5083266;27;45809;-62
2023/08/20 07:36:23;;;;;;;;;5.75;3.25;;;;;23.24;74.74;101740.78;5097073;27;45402;-62
2023/08/20 07:38:49;;;;;;;;;3.00;3.00;;;;;23.24;75.04;101729.03;5085830;27;45379;-62
2023/08/20 07:41:14;;;;;;;;;3.00;2.50;;;;;23.31;75.02;101733.06;5078002;27;45435;-62
2023/08/20 07:43:40;;;;;;;;;4.00;3.25;;;;;23.34;74.96;101727.41;5096015;27;46096;-62
2023/08/20 07:46:07;;;;;;;;;3.00;2.00;;;;;23.36;75.27;101725.44;5078760;27;45355;-62
2023/08/20 07:48:32;;;;;;;;;3.00;3.00;;;;;23.38;75.35;101726.19;5078310;27;45361;-62
2023/08/20 07:50:58;;;;;;;;;5.50;3.00;;;;;23.46;75.85;101733.81;5078756;27;45309;-62
2023/08/20 07:53:23;;;;;;;;;4.75;4.75;;;;;23.51;75.73;101739.81;5083882;27;45488;-62
2023/08/20 07:55:49;;;;;;;;;5.50;4.25;;;;;23.56;76.13;101737.63;5101943;27;45282;-62
2023/08/20 07:58:14;;;;;;;;;3.00;3.00;;;;;23.62;75.68;101734.47;5096290;27;45535;-62
2023/08/20 08:00:39;;;;;;;;;2.75;2.75;;;;;23.67;76.00;101737.75;5095584;27;45472;-62
2023/08/20 08:03:05;;;;;;;;;1.75;1.75;;;;;23.71;76.18;101734.81;5094368;27;45293;-62
2023/08/20 08:05:30;;;;;;;;;4.00;3.00;;;;;23.78;76.24;101742.41;5095692;27;45383;-62
2023/08/20 08:07:55;;;;;;;;;5.25;3.50;;;;;23.81;76.81;101742.19;5081372;27;46780;-62
2023/08/20 08:10:21;;;;;;;;;4.00;4.00;;;;;23.88;76.22;101742.63;5083117;27;45350;-62
2023/08/20 08:12:46;;;;;;;;;3.75;3.75;;;;;23.92;77.05;101743.28;5100933;27;45500;-62
2023/08/20 08:15:13;;;;;;;;;4.25;4.25;;;;;23.99;76.59;101739.13;5081301;27;45645;-62
2023/08/20 08:17:38;;;;;;;;;6.00;4.25;;;;;24.04;76.33;101737.81;5080397;27;45548;-62
2023/08/20 08:20:04;;;;;;;;;4.25;4.00;;;;;24.09;75.95;101736.59;5088230;27;45436;-62
2023/08/20 08:22:29;;;;;;;;;4.00;3.00;;;;;24.16;76.79;101743.34;5088114;27;45286;-62
2023/08/20 08:24:55;;;;;;;;;4.50;4.00;;;;;24.19;76.83;101741.25;5097871;27;47730;-62
2023/08/20 08:27:20;;;;;;;;;3.50;3.00;;;;;24.26;77.44;101747.13;5090677;27;56741;-62
2023/08/20 08:29:45;;;;;;;;;5.00;4.00;;;;;24.34;76.88;101752.00;5096272;27;57310;-63
2023/08/20 08:32:10;;;;;;;;;4.00;4.00;;;;;24.39;76.04;101750.69;5088850;27;45286;-62
2023/08/20 08:34:36;;;;;;;;;5.75;5.75;;;;;24.46;76.42;101756.56;5094730;27;50015;-62
2023/08/20 08:37:01;;;;;;;;;5.00;5.00;;;;;24.50;75.82;101757.19;5087626;27;57130;-62
2023/08/20 08:39:26;;;;;;;;;4.00;4.00;;;;;24.55;75.99;101750.41;5094539;27;46123;-63
2023/08/20 08:42:00;;;;;;;;;5.00;5.00;;;;;24.61;76.25;101760.00;5080571;27;53796;-63
2023/08/20 08:44:26;;;;;;;;;4.50;4.00;;;;;24.66;75.67;101752.34;5093124;27;45451;-62
2023/08/20 08:46:52;;;;;;;;;4.00;4.00;;;;;24.73;75.81;101756.34;5083439;27;45459;-63
2023/08/20 08:49:18;;;;;;;;;5.00;5.00;;;;;24.78;76.70;101762.31;5101027;27;45296;-63
2023/08/20 08:51:45;;;;;;;;;5.50;4.25;;;;;24.81;75.76;101755.75;5087439;27;45323;-62
2023/08/20 08:54:13;;;;;;;;;3.75;3.75;;;;;24.90;76.30;101757.78;5092782;27;45525;-62
2023/08/20 08:56:39;;;;;;;;;4.50;4.00;;;;;24.95;75.90;101750.09;5097558;27;45571;-62
2023/08/20 08:59:04;;;;;;;;;5.25;5.00;;;;;24.96;76.34;101749.09;5100703;27;45465;-62
2023/08/20 09:01:30;;;;;;;;;3.25;3.25;;;;;25.03;74.94;101748.63;5090583;27;45940;-62
2023/08/20 09:03:56;;;;;;;;;4.75;4.75;;;;;25.11;75.44;101757.97;5086923;27;45533;-62
2023/08/20 09:06:21;;;;;;;;;5.00;5.00;;;;;25.14;75.70;101744.06;5080502;27;45333;-62
2023/08/20 09:08:46;;;;;;;;;4.50;3.50;;;;;25.18;76.61;101736.50;5080247;27;52473;-62
2023/08/20 09:11:12;;;;;;;;;7.50;6.50;;;;;25.29;76.18;101744.75;5081186;27;51590;-62
2023/08/20 09:13:39;;;;;;;;;6.50;4.25;;;;;25.32;76.30;101729.97;5088585;27;45495;-62
2023/08/20 09:16:09;;;;;;;;;4.75;4.75;;;;;25.42;74.74;101733.72;5085761;27;45527;-62
2023/08/20 09:18:42;;;;;;;;;4.50;4.50;;;;;25.43;75.89;101721.78;5091339;27;45578;-62
2023/08/20 09:21:08;;;;;;;;;5.00;5.00;;;;;25.55;74.91;101727.28;5097603;27;45483;-62
2023/08/20 09:23:34;;;;;;;;;6.00;6.00;;;;;25.58;74.37;101722.44;5085744;27;45610;-63
2023/08/20 09:26:02;;;;;;;;;4.00;4.00;;;;;25.62;74.70;101723.91;5088605;27;45816;-62
2023/08/20 09:28:28;;;;;;;;;4.00;4.00;;;;;25.66;74.89;101722.69;5083837;27;45922;-62
2023/08/20 09:31:01;;;;;;;;;7.00;5.50;;;;;25.71;73.50;101722.31;5093019;27;45491;-63
2023/08/20 09:33:27;;;;;;;;;6.00;6.00;;;;;25.75;73.20;101714.72;5089551;27;45873;-63
2023/08/20 09:35:56;;;;;;;;;4.75;3.75;;;;;25.77;73.25;101730.00;5086910;27;45749;-63
2023/08/20 09:38:22;;;;;;;;;4.00;4.00;;;;;25.81;73.28;101730.63;5092153;27;46497;-63
2023/08/20 09:40:50;;;;;;;;;6.00;6.00;;;;;25.84;73.23;101717.59;5092414;27;45770;-63
2023/08/20 09:43:16;;;;;;;;;5.00;5.00;;;;;25.84;72.66;101724.91;5096313;27;45616;-63
2023/08/20 09:45:43;;;;;;;;;4.00;4.00;;;;;25.89;72.04;101731.75;5091448;27;45407;-63
2023/08/20 09:48:09;;;;;;;;;3.50;3.50;;;;;25.91;72.42;101728.00;5091694;27;47796;-63
2023/08/20 09:50:36;;;;;;;;;4.00;4.00;;;;;25.93;72.33;101721.41;5091243;27;45802;-63
2023/08/20 09:53:36;;;;;;;;;4.25;3.50;;;;;26.01;72.48;101729.00;5096001;27;45768;-63
2023/08/20 09:56:28;;;;;;;;;4.75;4.75;;;;;26.09;72.29;101729.25;5060186;27;45530;-63
2023/08/20 09:58:54;;;;;;;;;5.00;4.00;;;;;26.09;70.92;101722.91;5082052;27;45759;-62
2023/08/20 10:01:20;;;;;;;;;4.50;3.00;;;;;26.11;70.92;101716.34;5087797;27;45788;-62
2023/08/20 10:03:46;;;;;;;;;5.00;4.50;;;;;26.14;70.64;101728.88;5091246;27;45843;-62
2023/08/20 10:06:11;;;;;;;;;2.75;2.75;;;;;26.15;71.69;101726.00;5085304;27;45823;-62
2023/08/20 10:08:38;;;;;;;;;4.00;4.00;;;;;26.24;71.62;101725.25;5084793;27;46183;-62
2023/08/20 10:11:03;;;;;;;;;5.75;5.75;;;;;26.32;71.47;101726.47;5089703;27;45598;-63
2023/08/20 10:13:29;;;;;;;;;5.75;5.25;;;;;26.32;71.07;101707.31;5087569;27;45917;-62
2023/08/20 10:15:55;;;;;;;;;3.25;3.25;;;;;26.40;70.39;101723.97;5091541;27;45490;-62
2023/08/20 10:18:22;;;;;;;;;4.75;4.75;;;;;26.45;71.17;101713.50;5082164;27;46749;-62
2023/08/20 10:20:50;;;;;;;;;3.25;3.25;;;;;26.44;70.13;101711.75;5080908;27;45642;-62
2023/08/20 10:23:20;;;;;;;;;6.00;5.75;;;;;26.52;71.09;101722.06;5088681;27;45747;-62
2023/08/20 10:25:46;;;;;;;;;4.00;4.00;;;;;26.59;70.96;101712.31;5085118;27;45443;-63
2023/08/20 10:28:24;;;;;;;;;3.25;3.25;;;;;26.68;70.31;101710.69;5081867;27;45639;-63
2023/08/20 10:31:12;;;;;;;;;3.50;3.50;;;;;26.78;70.35;101717.09;5095342;27;45580;-62
2023/08/20 10:33:47;;;;;;;;;4.25;4.25;;;;;26.84;69.47;101721.19;5091507;27;45479;-63
2023/08/20 10:36:17;;;;;;;;;2.00;2.00;;;;;26.85;69.07;101717.44;5095205;27;45807;-63
2023/08/20 10:38:45;;;;;;;;;3.25;3.25;;;;;26.84;68.86;101713.00;5095841;27;45803;-63
2023/08/20 10:41:11;;;;;;;;;5.25;4.25;;;;;26.84;68.78;101711.09;5082195;27;45855;-62
2023/08/20 10:43:45;;;;;;;;;4.25;3.50;;;;;26.85;69.42;101711.97;5086746;27;45800;-62
2023/08/20 10:46:17;;;;;;;;;5.00;4.50;;;;;26.90;68.64;101707.00;5091480;27;45494;-62
2023/08/20 10:48:48;;;;;;;;;3.75;2.75;;;;;26.93;68.79;101715.81;5092037;27;45423;-62
2023/08/20 10:51:23;;;;;;;;;3.75;3.75;;;;;26.98;68.03;101715.38;5088054;27;45565;-62
2023/08/20 10:54:05;;;;;;;;;7.00;5.00;;;;;27.02;68.52;101710.53;5090619;27;45359;-62
2023/08/20 10:56:44;;;;;;;;;4.00;4.00;;;;;27.08;67.90;101709.97;5090020;27;45388;-62
2023/08/20 10:59:16;;;;;;;;;3.75;3.75;;;;;27.10;66.78;101708.00;5093516;27;45511;-62
2023/08/20 11:01:49;;;;;;;;;4.50;4.00;;;;;27.08;66.51;101696.28;5092855;27;45262;-62
2023/08/20 11:04:16;;;;;;;;;3.75;3.75;;;;;27.14;66.89;101701.22;5089509;27;45449;-62
2023/08/20 11:06:42;;;;;;;;;4.25;4.25;;;;;27.21;67.75;101701.56;5082598;27;45436;-62
2023/08/20 11:09:07;;;;;;;;;3.00;2.50;;;;;27.28;67.20;101697.25;5080454;27;46212;-63
2023/08/20 11:11:33;;;;;;;;;4.25;4.25;;;;;27.28;66.60;101697.25;5081563;27;45305;-62
2023/08/20 11:14:13;;;;;;;;;3.75;3.50;;;;;27.40;66.44;101707.19;5081035;27;45290;-61
2023/08/20 11:16:39;;;;;;;;;4.00;3.25;;;;;27.51;66.50;101706.22;5080114;27;45548;-63
2023/08/20 11:19:08;;;;;;;;;1.50;1.50;;;;;27.56;66.24;101703.06;5078918;27;45541;-62
2023/08/20 11:21:34;;;;;;;;;2.75;2.75;;;;;27.62;65.70;101697.03;5092226;27;45367;-62
2023/08/20 11:23:59;;;;;;;;;3.00;3.00;;;;;27.69;65.78;101698.22;5093087;27;45353;-62